createdAt,value
2022-11-16T00:01:25.973Z,1.72
2022-11-16T00:03:59.734Z,2.40
2022-11-16T00:06:31.507Z,2.45
2022-11-16T00:09:21.506Z,2.17
2022-11-16T00:11:54.033Z,3.35
2022-11-16T00:14:26.149Z,2.67
2022-11-16T00:16:56.721Z,3.35
2022-11-16T00:19:28.205Z,2.90
2022-11-16T00:21:59.247Z,3.47
2022-11-16T00:24:28.712Z,3.33
2022-11-16T00:26:58.220Z,3.17
2022-11-16T00:29:29.266Z,2.70
2022-11-16T00:31:58.695Z,2.37
2022-11-16T00:34:29.848Z,2.50
2022-11-16T00:36:59.418Z,3.05
2022-11-16T00:39:28.844Z,3.20
2022-11-16T00:41:58.346Z,3.02
2022-11-16T00:44:27.806Z,2.80
2022-11-16T00:46:57.243Z,3.27
2022-11-16T00:49:26.652Z,3.40
2022-11-16T00:51:57.095Z,3.02
2022-11-16T00:54:26.950Z,2.72
2022-11-16T00:56:57.068Z,3.00
2022-11-16T00:59:28.230Z,2.53
2022-11-16T01:01:59.370Z,2.50
2022-11-16T01:04:29.097Z,2.80
2022-11-16T01:06:58.559Z,3.17
2022-11-16T01:09:28.071Z,3.42
2022-11-16T01:12:09.406Z,3.33
2022-11-16T01:14:43.739Z,3.65
2022-11-16T01:17:16.298Z,3.62
2022-11-16T01:19:45.870Z,3.17
2022-11-16T01:22:15.453Z,2.70
2022-11-16T01:24:47.235Z,3.10
2022-11-16T01:27:16.814Z,2.92
2022-11-16T01:29:48.004Z,3.10
2022-11-16T01:32:18.410Z,3.15
2022-11-16T01:34:48.346Z,3.45
2022-11-16T01:37:25.280Z,2.80
2022-11-16T01:39:55.392Z,3.10
2022-11-16T01:42:30.665Z,2.87
2022-11-16T01:45:04.993Z,3.00
2022-11-16T01:47:35.162Z,3.10
2022-11-16T01:50:07.831Z,3.55
2022-11-16T01:52:42.038Z,3.47
2022-11-16T01:55:13.559Z,3.05
2022-11-16T01:57:51.928Z,3.70
2022-11-16T02:00:22.262Z,3.08
2022-11-16T02:02:53.449Z,3.30
2022-11-16T02:05:39.440Z,2.90
2022-11-16T02:08:32.981Z,2.75
2022-11-16T02:11:40.569Z,2.87
2022-11-16T02:14:19.626Z,2.42
2022-11-16T02:16:56.688Z,2.67
2022-11-16T02:20:04.577Z,2.92
2022-11-16T02:22:40.104Z,2.62
2022-11-16T02:25:37.203Z,2.55
2022-11-16T02:28:26.528Z,2.62
2022-11-16T02:30:59.021Z,2.50
2022-11-16T02:33:31.725Z,2.60
2022-11-16T02:36:04.721Z,3.00
2022-11-16T02:38:37.350Z,2.77
2022-11-16T02:41:14.064Z,2.75
2022-11-16T02:43:53.978Z,2.42
2022-11-16T02:46:26.498Z,2.83
2022-11-16T02:51:29.832Z,3.10
2022-11-16T02:54:11.259Z,2.72
2022-11-16T02:56:57.642Z,2.90
2022-11-16T02:59:31.882Z,2.90
2022-11-16T03:02:13.464Z,2.52
2022-11-16T03:04:48.816Z,2.85
2022-11-16T03:07:21.471Z,3.12
2022-11-16T03:09:53.289Z,3.12
2022-11-16T03:12:25.840Z,2.50
2022-11-16T03:14:58.681Z,2.83
2022-11-16T03:17:34.169Z,3.08
2022-11-16T03:20:23.060Z,2.95
2022-11-16T03:23:01.299Z,2.83
2022-11-16T19:24:05.891Z,6.60
2022-11-16T19:26:35.551Z,5.87
2022-11-16T19:29:05.079Z,5.55
2022-11-16T19:31:34.574Z,6.40
2022-11-16T19:34:06.941Z,8.38
2022-11-16T19:36:38.371Z,8.30
2022-11-16T19:39:09.016Z,5.60
2022-11-16T19:41:38.473Z,3.90
2022-11-16T19:44:07.966Z,3.67
2022-11-16T19:46:37.967Z,4.50
2022-11-16T19:49:19.640Z,4.33
2022-11-16T19:51:59.132Z,4.63
2022-11-16T19:55:02.350Z,4.50
2022-11-16T19:58:05.883Z,5.25
2022-11-16T20:01:08.939Z,5.00
2022-11-16T20:07:08.417Z,5.87
2022-11-16T20:10:11.552Z,5.45
2022-11-16T20:12:55.532Z,3.75
2022-11-16T20:15:33.691Z,4.37
2022-11-16T20:18:10.084Z,4.47
2022-11-16T20:20:48.917Z,5.30
2022-11-16T20:23:24.818Z,9.93
2022-11-16T20:26:17.892Z,5.17
2022-11-16T20:28:59.844Z,4.47
2022-11-16T20:31:36.654Z,6.10
2022-11-16T20:34:13.258Z,4.50
2022-11-16T20:36:52.118Z,4.20
2022-11-16T20:39:42.601Z,6.45
2022-11-16T20:42:16.877Z,6.20
2022-11-16T20:45:13.986Z,4.03
2022-11-16T20:47:51.449Z,3.40
2022-11-16T20:50:44.792Z,3.45
2022-11-16T20:53:28.436Z,3.50
2022-11-16T20:56:06.696Z,3.62
2022-11-16T20:58:57.706Z,3.22
2022-11-16T21:01:40.720Z,3.87
2022-11-16T21:04:17.583Z,3.22
2022-11-16T21:07:14.777Z,3.05
2022-11-16T21:10:05.170Z,3.35
2022-11-16T21:13:05.918Z,2.92
2022-11-16T21:16:03.686Z,2.60
2022-11-16T21:18:40.175Z,2.92
2022-11-16T21:21:18.132Z,2.50
2022-11-16T21:24:03.122Z,2.40
2022-11-16T21:26:44.663Z,2.53
2022-11-16T21:29:20.396Z,2.73
2022-11-16T21:32:08.935Z,2.52
2022-11-16T21:34:48.084Z,4.17
2022-11-16T21:37:32.899Z,4.83
2022-11-16T21:40:20.647Z,2.87
2022-11-16T21:42:57.334Z,2.58
2022-11-16T21:45:30.303Z,2.98
2022-11-16T21:48:05.386Z,2.80
2022-11-16T21:50:45.924Z,3.13
2022-11-16T21:53:29.634Z,4.20
2022-11-16T21:56:08.880Z,3.20
2022-11-16T21:58:55.176Z,4.77
2022-11-16T22:02:02.239Z,3.15
2022-11-16T22:04:55.871Z,2.87
2022-11-16T22:07:39.765Z,2.72
2022-11-16T22:10:25.093Z,4.00
2022-11-16T22:13:06.673Z,3.62
2022-11-16T22:15:53.538Z,3.72
2022-11-16T22:18:34.267Z,6.90
2022-11-16T22:21:08.721Z,8.37
2022-11-16T22:23:49.254Z,5.78
2022-11-16T22:26:36.780Z,6.40
2022-11-16T22:29:23.219Z,3.83
2022-11-16T22:32:07.779Z,4.70
2022-11-16T22:34:42.655Z,4.20
2022-11-16T22:37:15.707Z,4.40
2022-11-16T22:39:52.099Z,5.23
2022-11-16T22:42:26.675Z,5.37
2022-11-16T22:45:02.759Z,4.90
2022-11-16T22:47:54.711Z,4.30
2022-11-16T22:50:24.339Z,4.90
2022-11-16T22:53:01.622Z,5.42
2022-11-16T22:55:43.898Z,5.28
2022-11-16T22:58:21.366Z,5.10
2022-11-16T23:01:06.372Z,4.30
2022-11-16T23:03:41.536Z,5.87
2022-11-16T23:06:21.883Z,5.50
2022-11-16T23:08:55.101Z,4.80
2022-11-16T23:11:50.140Z,4.08
2022-11-16T23:14:44.940Z,4.10
2022-11-16T23:17:25.995Z,4.62
2022-11-16T23:20:31.677Z,4.10
2022-11-16T23:23:39.350Z,3.70
2022-11-16T23:26:35.963Z,3.85
2022-11-16T23:29:10.960Z,3.40
2022-11-16T23:31:45.502Z,3.80
2022-11-16T23:34:23.238Z,3.90
2022-11-16T23:37:14.247Z,3.62
2022-11-16T23:39:51.653Z,3.53
2022-11-16T23:42:40.872Z,3.80
2022-11-16T23:45:23.145Z,3.90
2022-11-16T23:48:14.872Z,3.72
2022-11-16T23:50:50.742Z,3.62
2022-11-16T23:53:31.173Z,3.50
2022-11-16T23:56:06.265Z,3.75
